Time;durP1;ratioP1;P1;durP2;ratioP2;P2;SDS_P1;SDS_P2;PMS_P1;PMS_P2;Temp;Humidity;BMP_temperature;BMP_pressure;BME280_temperature;BME280_humidity;BME280_pressure;Samples;Min_cycle;Max_cycle;Signal;HPM_P1;HPM_P2
2023/05/15 00:01:23;;;;;;;14.40;6.53;;;;;;;-145.69;100.00;52660.25;5055083;28;20544;-82
2023/05/15 00:03:51;;;;;;;16.43;6.70;;;;;;;-145.69;100.00;52638.47;5064828;28;20535;-81
2023/05/15 00:06:19;;;;;;;12.17;6.37;;;;;;;-145.69;100.00;52618.66;5074972;28;20237;-81
2023/05/15 00:08:46;;;;;;;10.40;6.13;;;;;;;-145.69;100.00;52614.72;5074724;28;20206;-81
2023/05/15 00:11:12;;;;;;;12.73;6.23;;;;;;;-145.69;100.00;52634.50;5074152;28;20226;-81
2023/05/15 00:13:39;;;;;;;13.47;6.67;;;;;;;-145.69;100.00;52590.94;5074997;28;20210;-81
2023/05/15 00:16:06;;;;;;;14.00;7.30;;;;;;;-145.69;100.00;52644.41;5074918;28;20294;-80
2023/05/15 00:18:33;;;;;;;14.47;6.93;;;;;;;-145.69;100.00;52646.41;5074828;28;20195;-81
2023/05/15 00:20:59;;;;;;;18.27;8.67;;;;;;;-145.69;100.00;52622.63;5057927;28;20551;-82
2023/05/15 00:23:27;;;;;;;26.87;9.10;;;;;;;-145.69;100.00;52658.28;5055083;28;20210;-83
2023/05/15 00:25:54;;;;;;;20.20;9.80;;;;;;;-145.69;100.00;52654.31;5054587;28;20207;-82
2023/05/15 00:28:20;;;;;;;23.83;10.13;;;;;;;-145.69;100.00;52632.53;5053402;28;20608;-81
2023/05/15 00:30:47;;;;;;;26.67;10.53;;;;;;;-145.69;100.00;52626.59;5054454;28;20238;-82
2023/05/15 00:33:13;;;;;;;23.93;9.80;;;;;;;-145.69;100.00;52630.53;5059115;28;20195;-81
2023/05/15 00:35:40;;;;;;;16.27;7.63;;;;;;;-145.69;100.00;52614.72;5074398;28;20206;-81
2023/05/15 00:38:06;;;;;;;17.87;8.43;;;;;;;-145.69;100.00;52600.84;5074281;28;20205;-81
2023/05/15 00:40:36;;;;;;;15.67;7.63;;;;;;;-145.69;100.00;52644.41;5074598;28;20203;-82
2023/05/15 00:43:04;;;;;;;14.33;6.63;;;;;;;-145.69;100.00;52614.72;5035204;28;20242;-81
2023/05/15 00:45:30;;;;;;;26.27;10.13;;;;;;;-145.69;100.00;52638.47;5034177;28;20207;-81
2023/05/15 00:47:58;;;;;;;24.00;9.63;;;;;;;-145.69;100.00;52634.50;5033881;28;20247;-81
2023/05/15 00:50:25;;;;;;;14.33;7.40;;;;;;;-145.69;100.00;52622.63;5044545;28;20277;-82
2023/05/15 00:52:53;;;;;;;17.17;7.07;;;;;;;-145.69;100.00;52618.66;5053899;28;20213;-82
2023/05/15 00:55:19;;;;;;;14.70;7.87;;;;;;;-145.69;100.00;52638.47;5053944;28;20658;-82
2023/05/15 00:57:48;;;;;;;23.30;7.90;;;;;;;-145.69;100.00;52622.63;5054279;28;20200;-82
2023/05/15 01:00:17;;;;;;;14.03;6.77;;;;;;;-145.69;100.00;52626.59;5054158;28;20211;-82
2023/05/15 01:02:44;;;;;;;13.07;6.73;;;;;;;-145.69;100.00;52630.53;5053937;28;20207;-81
2023/05/15 01:05:10;;;;;;;14.47;7.37;;;;;;;-145.69;100.00;52602.81;5072961;28;20259;-82
2023/05/15 01:07:44;;;;;;;14.47;6.93;;;;;;;-145.69;100.00;52632.53;5072661;28;20202;-82
2023/05/15 01:10:12;;;;;;;20.13;7.47;;;;;;;-145.69;100.00;52646.41;5073889;28;20205;-82
2023/05/15 01:12:41;;;;;;;22.33;8.10;;;;;;;-145.69;100.00;52658.28;5057995;28;20279;-82
2023/05/15 01:15:10;;;;;;;22.27;8.33;;;;;;;-145.69;100.00;52622.63;5055121;28;20657;-81
2023/05/15 01:17:37;;;;;;;19.07;8.20;;;;;;;-145.69;100.00;52642.44;5060165;28;20550;-81
2023/05/15 01:20:09;;;;;;;20.03;8.57;;;;;;;-145.69;100.00;52646.41;5073269;28;20190;-82
2023/05/15 01:22:45;;;;;;;17.73;7.97;;;;;;;-145.69;100.00;52642.44;5065915;28;20195;-82
2023/05/15 01:25:37;;;;;;;22.33;8.70;;;;;;;-145.69;100.00;52662.22;5053040;28;20214;-82
2023/05/15 01:28:09;;;;;;;23.67;9.20;;;;;;;-145.69;100.00;52654.31;5033871;28;20208;-82
2023/05/15 01:30:38;;;;;;;21.20;8.80;;;;;;;-145.69;100.00;52626.59;5033579;28;20243;-82
2023/05/15 01:33:08;;;;;;;24.50;9.67;;;;;;;-145.69;100.00;52666.19;5033708;28;20204;-82
2023/05/15 01:35:41;;;;;;;22.73;10.10;;;;;;;-145.69;100.00;52624.59;5033267;28;20670;-81
2023/05/15 01:38:15;;;;;;;21.93;9.67;;;;;;;-145.69;100.00;52622.63;5033657;28;20243;-81
2023/05/15 01:40:44;;;;;;;21.63;8.80;;;;;;;-145.69;100.00;52674.13;5033550;28;20294;-83
2023/05/15 01:43:18;;;;;;;21.17;8.37;;;;;;;-145.69;100.00;52626.59;5072698;28;20202;-83
2023/05/15 01:45:44;;;;;;;18.97;8.43;;;;;;;-145.69;100.00;52632.53;5073710;28;20230;-84
2023/05/15 01:48:14;;;;;;;23.53;8.97;;;;;;;-145.69;100.00;52606.78;5056272;28;20223;-83
2023/05/15 01:50:45;;;;;;;31.73;9.30;;;;;;;-145.69;100.00;52632.53;5053089;28;20224;-83
2023/05/15 01:53:12;;;;;;;26.97;10.23;;;;;;;-145.69;100.00;52622.63;5053572;28;20218;-84
2023/05/15 01:55:40;;;;;;;26.43;10.30;;;;;;;-145.69;100.00;52618.66;5053382;28;20199;-83
2023/05/15 01:58:07;;;;;;;22.43;9.37;;;;;;;-145.69;100.00;52642.44;5052693;28;20204;-83
2023/05/15 02:00:36;;;;;;;30.03;9.90;;;;;;;-145.69;100.00;52581.03;5053078;28;20203;-82
2023/05/15 02:03:05;;;;;;;26.87;11.23;;;;;;;-145.69;100.00;52638.47;5053054;28;20295;-82
2023/05/15 02:05:33;;;;;;;30.07;11.50;;;;;;;-145.69;100.00;52618.66;5056595;28;20195;-82
2023/05/15 02:08:01;;;;;;;30.53;10.47;;;;;;;-145.69;100.00;52598.84;5071770;28;20214;-82
2023/05/15 02:10:28;;;;;;;23.63;8.53;;;;;;;-145.69;100.00;52598.84;5073145;28;20203;-84
2023/05/15 02:12:56;;;;;;;21.87;8.60;;;;;;;-145.69;100.00;52622.63;5072778;28;20202;-83
2023/05/15 02:15:24;;;;;;;19.77;8.77;;;;;;;-145.69;100.00;52614.72;5072034;28;20202;-83
2023/05/15 02:17:54;;;;;;;17.37;7.47;;;;;;;-145.69;100.00;52612.72;5073080;28;20202;-84
2023/05/15 02:20:21;;;;;;;17.87;7.73;;;;;;;-145.69;100.00;52624.59;5063211;28;20316;-84
2023/05/15 02:22:48;;;;;;;16.97;7.73;;;;;;;-145.69;100.00;52622.63;5058440;28;20203;-84
2023/05/15 02:25:14;;;;;;;20.27;8.90;;;;;;;-145.69;100.00;52612.72;5071860;28;20209;-82
2023/05/15 02:27:48;;;;;;;18.63;8.37;;;;;;;-145.69;100.00;52618.66;5072971;28;20217;-84
2023/05/15 02:30:28;;;;;;;20.37;8.50;;;;;;;-145.69;100.00;52606.78;5073446;28;20209;-84
2023/05/15 02:33:04;;;;;;;21.43;9.00;;;;;;;-145.69;100.00;52606.78;5073118;28;20199;-84
2023/05/15 02:35:36;;;;;;;20.33;8.63;;;;;;;-145.69;100.00;52630.53;5070170;28;20569;-83
2023/05/15 02:38:07;;;;;;;21.43;8.53;;;;;;;-145.69;100.00;52606.78;5053216;28;20207;-84
2023/05/15 02:40:36;;;;;;;17.17;7.40;;;;;;;-145.69;100.00;52586.97;5053514;28;20200;-85
2023/05/15 02:43:04;;;;;;;16.47;7.83;;;;;;;-145.69;100.00;52602.81;5071991;28;20199;-85
2023/05/15 02:45:31;;;;;;;18.20;7.97;;;;;;;-145.69;100.00;52585.00;5073281;28;20210;-85
2023/05/15 02:48:00;;;;;;;17.90;8.23;;;;;;;-145.69;100.00;52624.59;5070282;28;20238;-84
2023/05/15 02:50:26;;;;;;;19.93;8.03;;;;;;;-145.69;100.00;52571.13;5055906;28;20199;-84
2023/05/15 02:53:02;;;;;;;15.20;7.40;;;;;;;-145.69;100.00;52644.41;5071805;28;20203;-83
2023/05/15 02:55:28;;;;;;;17.07;7.70;;;;;;;-145.69;100.00;52624.59;5071967;28;20293;-84
2023/05/15 02:57:55;;;;;;;21.83;10.80;;;;;;;-145.69;100.00;52616.69;5071678;28;20449;-84
2023/05/15 03:00:22;;;;;;;18.57;8.07;;;;;;;-145.69;100.00;52620.66;5072982;28;20234;-83
2023/05/15 03:02:48;;;;;;;21.80;9.40;;;;;;;-145.69;100.00;52606.78;5072818;28;20195;-82
2023/05/15 03:05:16;;;;;;;24.03;9.23;;;;;;;-145.69;100.00;52610.75;5072162;28;20209;-83
2023/05/15 03:07:42;;;;;;;16.83;8.30;;;;;;;-145.69;100.00;52638.47;5052980;28;20199;-84
2023/05/15 03:10:10;;;;;;;23.33;8.63;;;;;;;-145.69;100.00;52614.72;5055453;28;20670;-83
2023/05/15 03:12:36;;;;;;;18.43;7.63;;;;;;;-145.69;100.00;52616.69;5056706;28;20227;-82
2023/05/15 03:15:03;;;;;;;20.70;8.27;;;;;;;-145.69;100.00;52606.78;5056367;28;20289;-82
2023/05/15 03:17:30;;;;;;;18.27;8.03;;;;;;;-145.69;100.00;52590.94;5055983;28;20202;-81
2023/05/15 03:19:57;;;;;;;22.00;9.27;;;;;;;-145.69;100.00;52628.56;5061722;28;20233;-82
2023/05/15 03:22:25;;;;;;;35.83;11.47;;;;;;;-145.69;100.00;52583.00;5076069;28;20195;-82
2023/05/15 03:24:52;;;;;;;22.00;9.50;;;;;;;-145.69;100.00;52626.59;5075628;28;20199;-82
2023/05/15 03:27:25;;;;;;;23.33;9.87;;;;;;;-145.69;100.00;52606.78;5076076;28;20211;-82
2023/05/15 03:29:54;;;;;;;20.73;9.33;;;;;;;-145.69;100.00;52608.75;5073572;28;20213;-82
2023/05/15 03:32:20;;;;;;;22.70;8.70;;;;;;;-145.69;100.00;52575.09;5056063;28;20228;-83
2023/05/15 03:34:47;;;;;;;29.90;11.40;;;;;;;-145.69;100.00;52581.03;5056306;28;20209;-83
2023/05/15 03:37:16;;;;;;;35.37;12.87;;;;;;;-145.69;100.00;52598.84;5055706;28;20198;-83
2023/05/15 03:39:44;;;;;;;28.17;11.53;;;;;;;-145.69;100.00;52606.78;5056117;28;20639;-82
2023/05/15 03:42:11;;;;;;;24.53;11.13;;;;;;;-145.69;100.00;52606.78;5058740;28;20287;-83
2023/05/15 03:44:37;;;;;;;29.87;12.73;;;;;;;-145.69;100.00;52598.84;5076198;28;20226;-84
2023/05/15 03:47:04;;;;;;;30.23;11.37;;;;;;;-145.69;100.00;52614.72;5075542;28;20223;-83
2023/05/15 03:49:33;;;;;;;24.60;10.03;;;;;;;-145.69;100.00;52579.06;5070703;28;20202;-83
2023/05/15 03:52:00;;;;;;;22.87;9.77;;;;;;;-145.69;100.00;52583.00;5055048;28;20227;-82
2023/05/15 03:54:32;;;;;;;22.67;9.37;;;;;;;-145.69;100.00;52575.09;5055464;28;20211;-83
2023/05/15 03:57:03;;;;;;;22.80;9.30;;;;;;;-145.69;100.00;52586.97;5055343;28;20241;-83
2023/05/15 03:59:30;;;;;;;24.27;9.13;;;;;;;-145.69;100.00;52602.81;5055109;28;20230;-84
2023/05/15 04:01:56;;;;;;;19.40;9.50;;;;;;;-145.69;100.00;52579.06;5054102;28;20196;-84
2023/05/15 04:04:26;;;;;;;19.43;8.90;;;;;;;-145.69;100.00;52583.00;5055374;28;20203;-83
2023/05/15 04:06:52;;;;;;;21.80;8.60;;;;;;;-145.69;100.00;52614.72;5055547;28;20203;-84
2023/05/15 04:09:20;;;;;;;24.87;9.97;;;;;;;-145.69;100.00;52594.91;5055305;28;20231;-84
2023/05/15 04:11:47;;;;;;;33.63;10.27;;;;;;;-145.69;100.00;52588.97;5072711;28;20229;-84
2023/05/15 04:14:15;;;;;;;20.63;10.13;;;;;;;-145.69;100.00;52583.00;5065543;28;20323;-84
2023/05/15 04:16:41;;;;;;;25.00;10.43;;;;;;;-145.69;100.00;52602.81;5059310;28;20307;-83
2023/05/15 04:19:11;;;;;;;18.37;8.13;;;;;;;-145.69;100.00;52567.16;5055792;28;20314;-84
2023/05/15 04:21:38;;;;;;;16.27;8.10;;;;;;;-145.69;100.00;52600.84;5053053;28;20244;-82
2023/05/15 04:24:05;;;;;;;17.20;9.00;;;;;;;-145.69;100.00;52610.75;5052814;28;20594;-83
2023/05/15 04:26:31;;;;;;;20.70;9.20;;;;;;;-145.69;100.00;52608.75;5053667;28;20227;-83
2023/05/15 04:28:58;;;;;;;20.00;9.73;;;;;;;-145.69;100.00;52598.84;5054105;28;20203;-83
2023/05/15 04:31:27;;;;;;;19.90;9.80;;;;;;;-145.69;100.00;52563.22;5054933;28;20318;-83
2023/05/15 04:33:53;;;;;;;27.60;10.50;;;;;;;-145.69;100.00;52612.72;5055447;28;20196;-83
2023/05/15 04:36:20;;;;;;;24.33;10.30;;;;;;;-145.69;100.00;52598.84;5054951;28;20196;-83
2023/05/15 04:38:49;;;;;;;21.27;10.17;;;;;;;-145.69;100.00;52586.97;5054880;28;20555;-83
2023/05/15 04:41:16;;;;;;;17.33;9.17;;;;;;;-145.69;100.00;52590.94;5054768;28;20601;-83
2023/05/15 04:43:43;;;;;;;15.13;9.27;;;;;;;-145.69;100.00;52594.91;5054675;28;20199;-84
2023/05/15 04:46:17;;;;;;;19.80;8.60;;;;;;;-145.69;100.00;52585.00;5055049;28;20191;-84
2023/05/15 04:48:45;;;;;;;19.57;9.53;;;;;;;-145.69;100.00;52608.75;5054639;28;20321;-84
2023/05/15 04:51:13;;;;;;;21.43;9.13;;;;;;;-145.69;100.00;52588.97;5054678;28;20209;-84
2023/05/15 04:53:42;;;;;;;26.50;10.60;;;;;;;-145.69;100.00;52618.66;5048716;28;20283;-84
2023/05/15 04:56:09;;;;;;;24.73;11.47;;;;;;;-145.69;100.00;52600.84;5034825;28;20240;-84
2023/05/15 04:58:35;;;;;;;22.53;10.63;;;;;;;-145.69;100.00;52626.59;5034876;28;20212;-84
2023/05/15 05:01:05;;;;;;;20.80;11.10;;;;;;;-145.69;100.00;52583.00;5034933;28;20281;-84
2023/05/15 05:03:31;;;;;;;27.00;11.40;;;;;;;-145.69;100.00;52612.72;5045235;28;20287;-84
2023/05/15 05:06:02;;;;;;;21.73;10.17;;;;;;;-145.69;100.00;52592.91;5054407;28;20662;-83
2023/05/15 05:08:28;;;;;;;22.47;10.33;;;;;;;-145.69;100.00;52606.78;5054137;28;20207;-83
2023/05/15 05:10:58;;;;;;;20.50;10.23;;;;;;;-145.69;100.00;52598.84;5054883;28;20321;-83
2023/05/15 05:13:25;;;;;;;21.07;10.03;;;;;;;-145.69;100.00;52586.97;5040976;28;20229;-82
2023/05/15 05:15:53;;;;;;;19.23;9.50;;;;;;;-145.69;100.00;52626.59;5073800;28;20561;-81
2023/05/15 05:18:20;;;;;;;21.93;10.40;;;;;;;-145.69;100.00;52614.72;5071982;28;20199;-81
2023/05/15 05:20:49;;;;;;;21.73;10.73;;;;;;;-145.69;100.00;52551.31;5073568;28;20203;-81
2023/05/15 05:23:21;;;;;;;19.90;10.60;;;;;;;-145.69;100.00;52583.00;5073615;28;20297;-83
2023/05/15 05:25:50;;;;;;;18.70;8.57;;;;;;;-145.69;100.00;52590.94;5073485;28;20199;-82
2023/05/15 05:28:21;;;;;;;24.10;10.30;;;;;;;-145.69;100.00;52592.91;5073516;28;20198;-82
2023/05/15 05:30:53;;;;;;;26.00;12.23;;;;;;;-145.69;100.00;52571.13;5073572;28;20206;-82
2023/05/15 05:33:25;;;;;;;20.53;10.10;;;;;;;-145.69;100.00;52551.31;5062903;28;20303;-82
2023/05/15 05:35:51;;;;;;;23.47;10.80;;;;;;;-145.69;100.00;52571.13;5073414;28;20210;-81
2023/05/15 05:38:18;;;;;;;21.93;10.43;;;;;;;-145.69;100.00;52583.00;5073214;28;20272;-82
2023/05/15 05:40:47;;;;;;;19.47;10.43;;;;;;;-145.69;100.00;52588.97;5073402;28;20209;-81
2023/05/15 05:43:14;;;;;;;22.00;9.83;;;;;;;-145.69;100.00;52598.84;5069716;28;20237;-82
2023/05/15 05:45:42;;;;;;;24.70;13.02;;;;;;;-145.69;100.00;52600.84;5052220;28;20439;-81
2023/05/15 05:48:10;;;;;;;17.17;8.90;;;;;;;-145.69;100.00;52596.88;5053026;28;20249;-81
2023/05/15 05:50:37;;;;;;;18.27;8.90;;;;;;;-145.69;100.00;52590.94;5052735;28;20676;-82
2023/05/15 05:53:03;;;;;;;19.00;9.87;;;;;;;-145.69;100.00;52588.97;5052962;28;20724;-82
2023/05/15 05:55:37;;;;;;;21.87;9.70;;;;;;;-145.69;100.00;52575.09;5053019;28;20196;-82
2023/05/15 05:58:09;;;;;;;18.80;10.07;;;;;;;-145.69;100.00;52606.78;5052959;28;20294;-81
2023/05/15 06:00:36;;;;;;;19.30;10.23;;;;;;;-145.69;100.00;52596.88;5052936;28;20200;-82
2023/05/15 06:03:04;;;;;;;22.40;11.10;;;;;;;-145.69;100.00;52577.06;5053100;28;20629;-82
2023/05/15 06:05:42;;;;;;;21.80;11.47;;;;;;;-145.69;100.00;52598.84;5053095;28;20218;-82
2023/05/15 06:08:31;;;;;;;24.53;10.60;;;;;;;-145.69;100.00;52590.94;5052859;28;20626;-83
2023/05/15 06:10:57;;;;;;;23.13;11.57;;;;;;;-145.69;100.00;52583.00;5050907;28;20202;-83
2023/05/15 06:13:29;;;;;;;27.00;12.93;;;;;;;-145.69;100.00;52602.81;5057001;28;20219;-84
2023/05/15 06:15:58;;;;;;;29.00;13.40;;;;;;;-145.69;100.00;52555.28;5053361;28;20245;-82
2023/05/15 06:18:28;;;;;;;31.33;15.60;;;;;;;-145.69;100.00;52529.53;5052733;28;20199;-81
2023/05/15 06:20:55;;;;;;;33.93;15.80;;;;;;;-145.69;100.00;52571.13;5052785;28;20207;-81
2023/05/15 06:23:21;;;;;;;25.13;12.37;;;;;;;-145.69;100.00;52555.28;5052745;28;20239;-81
2023/05/15 06:25:48;;;;;;;20.65;12.13;;;;;;;-145.69;100.00;52541.44;5072747;28;20294;-80
2023/05/15 06:28:16;;;;;;;26.17;14.05;;;;;;;-145.69;100.00;52529.53;5072598;28;20281;-81
2023/05/15 06:30:47;;;;;;;18.08;9.07;;;;;;;-145.69;100.00;52594.91;5072818;28;20205;-81
2023/05/15 06:33:20;;;;;;;13.32;8.00;;;;;;;-145.69;100.00;52563.22;5070220;28;20222;-81
2023/05/15 06:35:53;;;;;;;14.90;7.20;;;;;;;-145.69;100.00;52555.28;5070522;28;20312;-80
2023/05/15 06:38:19;;;;;;;9.68;6.38;;;;;;;-145.69;100.00;52527.56;5072452;28;20256;-81
2023/05/15 06:40:49;;;;;;;11.95;6.60;;;;;;;-145.69;100.00;52565.19;5069565;28;20202;-80
2023/05/15 06:43:18;;;;;;;9.40;6.25;;;;;;;-145.69;100.00;52563.22;5072091;28;20672;-79
2023/05/15 06:45:49;;;;;;;11.98;5.97;;;;;;;-145.69;100.00;52569.16;5076055;28;20195;-80
2023/05/15 06:48:16;;;;;;;8.43;5.68;;;;;;;-145.69;100.00;52590.94;5076272;28;20233;-79
2023/05/15 06:50:43;;;;;;;8.68;5.78;;;;;;;-145.69;100.00;52539.44;5076478;28;20203;-80
2023/05/15 06:53:09;;;;;;;8.77;6.22;;;;;;;-145.69;100.00;52557.28;5064072;28;20224;-80
2023/05/15 06:55:38;;;;;;;9.00;5.63;;;;;;;-145.69;100.00;52565.19;5051315;28;20222;-80
2023/05/15 06:58:05;;;;;;;10.05;5.75;;;;;;;-145.69;100.00;52531.53;5076473;28;20290;-80
2023/05/15 07:00:31;;;;;;;8.15;5.45;;;;;;;-145.69;100.00;52547.38;5076274;28;20290;-80
2023/05/15 07:03:01;;;;;;;10.07;6.18;;;;;;;-145.69;100.00;52533.50;5072873;28;20668;-80
2023/05/15 07:05:27;;;;;;;12.07;5.93;;;;;;;-145.69;100.00;52523.59;5056087;28;20199;-80
2023/05/15 07:07:55;;;;;;;14.00;6.55;;;;;;;-145.69;100.00;52519.63;5055132;28;20526;-81
2023/05/15 07:10:24;;;;;;;11.02;5.40;;;;;;;-145.69;100.00;52529.53;5056091;28;20789;-81
2023/05/15 07:12:54;;;;;;;10.20;5.85;;;;;;;-145.69;100.00;52491.91;5070807;28;20305;-80
2023/05/15 07:15:21;;;;;;;10.07;5.63;;;;;;;-145.69;100.00;52555.28;5075986;28;20203;-81
2023/05/15 07:17:47;;;;;;;9.85;5.82;;;;;;;-145.69;100.00;52551.31;5075663;28;20301;-80
2023/05/15 07:20:17;;;;;;;10.65;4.85;;;;;;;-145.69;100.00;52539.44;5075745;28;20209;-79
2023/05/15 07:22:45;;;;;;;7.75;4.53;;;;;;;-145.69;100.00;52523.59;5069326;28;20614;-80
2023/05/15 07:25:20;;;;;;;7.82;4.38;;;;;;;-145.69;100.00;52507.75;5055932;28;20199;-81
2023/05/15 07:27:49;;;;;;;7.97;5.53;;;;;;;-145.69;100.00;52539.44;5055849;28;20290;-81
2023/05/15 07:30:18;;;;;;;7.75;4.65;;;;;;;-145.69;100.00;52515.69;5055514;28;20257;-81
2023/05/15 07:32:48;;;;;;;6.75;4.45;;;;;;;-145.69;100.00;52519.63;5055329;28;20357;-81
2023/05/15 07:35:17;;;;;;;7.88;5.03;;;;;;;-145.69;100.00;52509.75;5075545;28;20228;-81
2023/05/15 07:37:45;;;;;;;7.38;5.40;;;;;;;-145.69;100.00;52505.78;5075596;28;20202;-81
2023/05/15 07:40:12;;;;;;;7.05;4.93;;;;;;;-145.69;100.00;52476.06;5075591;28;20206;-80
2023/05/15 07:42:39;;;;;;;6.30;4.10;;;;;;;-145.69;100.00;52511.72;5073867;28;20195;-88
2023/05/15 07:45:07;;;;;;;5.68;4.05;;;;;;;-145.69;100.00;52513.69;5062492;28;20528;-80
2023/05/15 07:47:36;;;;;;;9.18;4.60;;;;;;;-145.69;100.00;52519.63;5054537;28;20227;-80
2023/05/15 07:50:03;;;;;;;6.75;4.35;;;;;;;-145.69;100.00;52484.00;5054854;28;20195;-81
2023/05/15 07:52:31;;;;;;;6.57;4.38;;;;;;;-145.69;100.00;52503.81;5064213;28;20301;-83
2023/05/15 07:55:06;;;;;;;5.72;3.83;;;;;;;-145.69;100.00;52505.78;5075174;28;20629;-83
2023/05/15 07:57:32;;;;;;;6.78;4.57;;;;;;;-145.69;100.00;52487.97;5074567;28;20205;-80
2023/05/15 08:00:08;;;;;;;6.57;3.95;;;;;;;-145.69;100.00;52515.69;5075095;28;20193;-79
2023/05/15 08:02:44;;;;;;;6.97;4.07;;;;;;;-145.69;100.00;52495.88;5075089;28;20301;-80
2023/05/15 08:05:11;;;;;;;5.95;4.00;;;;;;;-145.69;100.00;52489.94;5070858;28;20257;-79
2023/05/15 08:07:39;;;;;;;5.72;4.25;;;;;;;-145.69;100.00;52472.13;5074977;28;20383;-79
2023/05/15 08:10:07;;;;;;;5.05;3.80;;;;;;;-145.69;100.00;52466.16;5074750;28;20202;-79
2023/05/15 08:12:34;;;;;;;6.03;3.97;;;;;;;-145.69;100.00;52519.63;5062998;28;20763;-79
2023/05/15 08:15:03;;;;;;;6.25;4.20;;;;;;;-145.69;100.00;52505.78;5054657;28;20666;-79
2023/05/15 08:17:30;;;;;;;6.05;3.75;;;;;;;-145.69;100.00;52485.97;5055030;28;20208;-79
2023/05/15 08:19:56;;;;;;;6.20;4.20;;;;;;;-145.69;100.00;52464.19;5054797;28;20309;-78
2023/05/15 08:22:25;;;;;;;9.05;4.68;;;;;;;-145.69;100.00;52456.28;5054681;28;20245;-78
2023/05/15 08:24:54;;;;;;;5.47;4.57;;;;;;;-145.69;100.00;52489.94;5054515;28;20542;-79
2023/05/15 08:27:21;;;;;;;7.22;4.18;;;;;;;-145.69;100.00;52513.69;5054918;28;20293;-79
2023/05/15 08:29:48;;;;;;;5.43;4.20;;;;;;;-145.69;100.00;52480.03;5054661;28;20195;-79
2023/05/15 08:32:17;;;;;;;7.10;3.78;;;;;;;-145.69;100.00;52491.91;5053968;28;20200;-78
2023/05/15 08:34:43;;;;;;;9.30;3.80;;;;;;;-145.69;100.00;52456.28;5063729;28;20241;-80
2023/05/15 08:37:10;;;;;;;5.72;4.22;;;;;;;-145.69;100.00;52444.38;5073471;28;20206;-80
2023/05/15 08:39:37;;;;;;;4.53;3.60;;;;;;;-145.69;100.00;52440.44;5074508;28;20199;-80
2023/05/15 08:42:10;;;;;;;5.28;3.95;;;;;;;-145.69;93.99;52452.31;5074438;28;20205;-81
2023/05/15 08:44:38;;;;;;;5.32;4.32;;;;;;;-145.69;100.00;52440.44;5074374;28;20207;-79
2023/05/15 08:47:07;;;;;;;5.53;3.53;;;;;;;-145.69;100.00;52440.44;5074208;28;20285;-81
2023/05/15 08:49:51;;;;;;;6.45;4.20;;;;;;;-145.69;96.78;52402.78;5074137;28;20657;-79
2023/05/15 08:52:17;;;;;;;7.30;4.00;;;;;;;-145.69;99.09;52428.53;5055227;28;20206;-79
2023/05/15 08:54:46;;;;;;;7.07;4.07;;;;;;;-145.69;100.00;52456.28;5053834;28;20192;-80
2023/05/15 08:57:16;;;;;;;8.68;3.50;;;;;;;-145.69;99.61;52432.50;5053867;28;20199;-80
2023/05/15 08:59:46;;;;;;;4.85;3.25;;;;;;;-145.69;93.50;52408.75;5054074;28;20230;-80
2023/05/15 09:02:13;;;;;;;6.75;4.00;;;;;;;-145.69;91.96;52448.34;5053958;28;20200;-78
2023/05/15 09:04:39;;;;;;;4.05;3.30;;;;;;;-145.69;91.99;52422.59;5054865;28;20218;-79
2023/05/15 09:07:08;;;;;;;5.63;3.60;;;;;;;-145.69;92.56;52392.91;5072771;28;20203;-79
2023/05/15 09:09:36;;;;;;;4.00;2.95;;;;;;;-145.69;90.78;52432.50;5073781;28;20241;-79
2023/05/15 09:12:03;;;;;;;4.03;3.40;;;;;;;-145.69;91.45;52390.91;5073666;28;20209;-79
2023/05/15 09:14:39;;;;;;;5.88;3.30;;;;;;;-145.69;84.59;52367.16;5073694;28;20226;-79
2023/05/15 09:17:05;;;;;;;5.32;2.67;;;;;;;-145.69;70.41;52353.28;5073395;28;20198;-78
2023/05/15 09:19:34;;;;;;;3.10;2.55;;;;;;;-145.69;70.92;52416.66;5073784;28;20290;-78
2023/05/15 09:22:16;;;;;;;5.10;3.70;;;;;;;-145.69;79.33;52412.69;5073517;28;20205;-78
2023/05/15 09:24:43;;;;;;;4.90;3.40;;;;;;;-145.69;82.66;52420.63;5073580;28;20199;-79
2023/05/15 09:27:10;;;;;;;4.10;3.15;;;;;;;-145.69;95.99;52444.38;5071724;28;20206;-78
2023/05/15 09:29:39;;;;;;;4.00;2.72;;;;;;;-145.69;93.45;52406.75;5053599;28;20253;-79
2023/05/15 09:32:10;;;;;;;6.57;3.10;;;;;;;-145.69;99.25;52460.22;5053130;28;20199;-78
2023/05/15 09:34:39;;;;;;;5.35;3.65;;;;;;;-145.69;96.45;52448.34;5053608;28;20314;-79
2023/05/15 09:37:10;;;;;;;5.55;4.15;;;;;;;-145.69;100.00;52460.22;5056583;28;20260;-78
2023/05/15 09:39:41;;;;;;;5.88;3.38;;;;;;;-145.69;100.00;52468.16;5073213;28;20206;-78
2023/05/15 09:42:12;;;;;;;6.05;3.70;;;;;;;-145.69;100.00;52464.19;5073650;28;20206;-79
2023/05/15 09:44:45;;;;;;;4.57;3.08;;;;;;;-145.69;100.00;52416.66;5067465;28;20199;-78
2023/05/15 09:47:15;;;;;;;4.93;3.28;;;;;;;-145.69;98.67;52412.69;5054190;28;20192;-78
2023/05/15 09:49:45;;;;;;;5.18;3.47;;;;;;;-145.69;98.92;52416.66;5052969;28;20219;-79
2023/05/15 09:52:15;;;;;;;5.13;3.60;;;;;;;-145.69;94.35;52394.88;5052998;28;20206;-79
2023/05/15 09:54:44;;;;;;;4.85;3.05;;;;;;;-145.69;92.53;52420.63;5053158;28;20318;-79
2023/05/15 09:57:12;;;;;;;4.05;2.60;;;;;;;-145.69;86.01;52396.84;5053189;28;20203;-81
2023/05/15 09:59:48;;;;;;;3.60;2.80;;;;;;;-145.69;91.51;52384.97;5053051;28;20204;-80
2023/05/15 10:02:22;;;;;;;4.55;3.15;;;;;;;-145.69;86.09;52400.81;5052958;28;20703;-81
2023/05/15 10:04:54;;;;;;;7.85;3.00;;;;;;;-145.69;90.06;52406.75;5069532;28;20199;-80
2023/05/15 10:07:28;;;;;;;3.40;2.38;;;;;;;-145.69;68.30;52408.75;5067195;28;20777;-81
2023/05/15 10:09:57;;;;;;;5.13;2.33;;;;;;;-145.69;72.41;52408.75;5053033;28;20214;-81
2023/05/15 10:12:25;;;;;;;2.53;1.70;;;;;;;-145.69;74.12;52426.56;5055709;28;20204;-88
2023/05/15 10:14:55;;;;;;;1.80;1.40;;;;;;;-145.69;80.55;52468.16;5055048;28;20318;-89
2023/05/15 10:17:22;;;;;;;6.70;1.50;;;;;;;-145.69;82.12;52464.19;5074205;28;20672;-86
2023/05/15 10:19:52;;;;;;;5.40;1.50;;;;;;;-145.69;86.19;52456.28;5073495;28;20206;-81
2023/05/15 10:22:22;;;;;;;2.42;1.65;;;;;;;-145.69;86.36;52456.28;5070275;28;20202;-79
2023/05/15 10:24:52;;;;;;;6.47;1.83;;;;;;;-145.69;97.82;52466.16;5065302;28;20264;-82
2023/05/15 10:27:21;;;;;;;1.75;1.42;;;;;;;-145.69;100.00;52472.13;5073636;28;20198;-84
2023/05/15 10:29:48;;;;;;;4.30;1.67;;;;;;;-145.69;100.00;52501.81;5072994;28;20199;-82
2023/05/15 10:32:17;;;;;;;4.97;1.58;;;;;;;-145.69;100.00;52484.00;5066625;28;20206;-81
2023/05/15 10:34:44;;;;;;;3.83;1.50;;;;;;;-145.69;100.00;52484.00;5067473;28;20222;-82
2023/05/15 10:37:12;;;;;;;2.58;1.90;;;;;;;-145.69;100.00;52470.13;5072507;28;20203;-80
2023/05/15 10:39:39;;;;;;;3.65;1.70;;;;;;;-145.69;100.00;52474.09;5072608;28;20290;-79
2023/05/15 10:42:10;;;;;;;2.72;1.50;;;;;;;-145.69;100.00;52446.38;5069658;28;20198;-79
2023/05/15 10:44:39;;;;;;;5.60;1.52;;;;;;;-145.69;100.00;52482.00;5050065;28;20196;-79
2023/05/15 10:47:06;;;;;;;7.40;1.85;;;;;;;-145.69;100.00;52440.44;5051873;28;20655;-80
2023/05/15 10:49:38;;;;;;;2.25;1.30;;;;;;;-145.69;100.00;52468.16;5052453;28;20199;-82
2023/05/15 10:52:05;;;;;;;3.45;1.77;;;;;;;-145.69;100.00;52470.13;5051237;28;20570;-79
2023/05/15 10:54:33;;;;;;;3.28;1.40;;;;;;;-145.69;100.00;52474.09;5051872;28;20231;-82
2023/05/15 10:57:00;;;;;;;1.58;1.40;;;;;;;-145.69;100.00;52464.19;5050690;28;20543;-81
2023/05/15 10:59:33;;;;;;;3.33;1.50;;;;;;;-145.69;100.00;52464.19;5052027;28;20203;-81
2023/05/15 11:02:22;;;;;;;2.60;1.80;;;;;;;-145.69;100.00;52440.44;5053779;28;20658;-81
2023/05/15 11:04:54;;;;;;;1.83;1.60;;;;;;;-145.69;100.00;52434.47;5058201;28;20191;-83
2023/05/15 11:07:22;;;;;;;1.63;1.40;;;;;;;-145.69;98.10;52484.00;5055283;28;20199;-87
2023/05/15 11:09:52;;;;;;;2.85;1.50;;;;;;;-145.69;97.56;52440.44;5052167;28;20203;-82
2023/05/15 11:12:25;;;;;;;2.83;1.83;;;;;;;-145.69;97.37;52418.63;5051712;28;20528;-81